Nassauborg — PHDU — position and weather

sailwx.info

Track history (hours):
 
Tides and Currents Weather Stations Pressure Air Temp Water Temp Dewpoint Dewpoint Depression Visibility Wind Speed Wind Dir Waves Ship Positions

Nassauborg

Ship's website: http://www.wagenborg.com/index.cfm?pid=37&itemid=158&contentitemid=236

Last reported at 2015-Sep-02 01:33 UTC. Time now 2015-Sep-02 02:31 UTC.
Position N 55°17' E 014°21'.

Length 143 m; beam 22 m.

Type: Ship. MMSI: 246430000.

Date/timePositionNaut miles runAvg speedWind from/ knotsBaromVisibWave heightAir tempDewpointWater temp
2015-Sep-02 01:33N 55°17' E 014°21'9 9.3
2015-Sep-02 00:33N 55°24' E 014°31'9 9.4
2015-Sep-01 23:33N 55°30' E 014°44'10 9.6
2015-Sep-01 22:33N 55°35' E 014°59'10 9.6
2015-Sep-01 21:33N 55°39' E 015°14'10 9.4
2015-Sep-01 20:31N 55°44' E 015°29'  
2015-Aug-27 18:33N 55°45' E 015°45'1110.2
2015-Aug-27 17:31N 55°40' E 015°29'1010.4
2015-Aug-27 16:33N 55°35' E 015°13'1010.4
2015-Aug-27 15:33N 55°30' E 014°57'1010.3
2015-Aug-27 14:33N 55°25' E 014°41'10 9.9
2015-Aug-27 13:33N 55°18' E 014°29'10 9.7
2015-Aug-27 12:33N 55°11' E 014°16'10 9.9
2015-Aug-27 11:33N 55°11' E 013°59'1010.2
2015-Aug-27 10:33N 55°12' E 013°41'1010.0
2015-Aug-27 09:33N 55°13' E 013°24'1010.0
2015-Aug-27 08:34N 55°14' E 013°06'1110.4
2015-Aug-27 07:33N 55°16' E 012°48'8 8.0
2015-Aug-27 06:33N 55°22' E 012°39'10 9.6
2015-Aug-27 05:33N 55°32' E 012°42'9 9.2
2015-Aug-27 04:33N 55°41' E 012°41'9 9.3
2015-Aug-27 03:33N 55°50' E 012°41'9 8.6
2015-Aug-27 02:34N 55°59' E 012°40'9 8.9
2015-Aug-27 01:34N 56°06' E 012°32'9 9.4
2015-Aug-27 00:33N 56°12' E 012°18'10 9.6
2015-Aug-26 23:33N 56°18' E 012°04'9 9.1
2015-Aug-26 22:32N 56°27' E 012°00'9 9.5
2015-Aug-26 21:33N 56°36' E 011°56'9 9.1
2015-Aug-26 20:32N 56°45' E 011°52'9 9.4
2015-Aug-26 19:33N 56°54' E 011°47'10 9.7
2015-Aug-26 18:33N 57°03' E 011°41'9 9.2
2015-Aug-26 17:33N 57°11' E 011°36'9 8.5
2015-Aug-26 16:33N 57°19' E 011°29'9 8.9
2015-Aug-26 15:33N 57°27' E 011°22'8 8.3
2015-Aug-26 14:33N 57°33' E 011°11'9 9.4
2015-Aug-26 13:33N 57°36' E 010°55'10 8.7
2015-Aug-26 12:26N 57°40' E 010°38'1 0.1
2015-Aug-26 07:26N 57°41' E 010°37'6 7.0
2015-Aug-26 06:33N 57°45' E 010°45'37611.4
2015-Aug-24 21:32N 55°23' E 000°14'1110.8
2015-Aug-24 20:33N 55°20' W 000°04'1110.7
2015-Aug-24 19:31N 55°15' W 000°22'1110.7
2015-Aug-24 18:32N 55°12' W 000°39'1410.8
2015-Aug-24 17:13N 55°06' W 001°02'710.8
2015-Aug-24 16:33N 55°04' W 001°14'  
Track history (hours):
 
Tides and Currents Weather Stations Pressure Air Temp Water Temp Dewpoint Dewpoint Depression Visibility Wind Speed Wind Dir Waves Ship Positions

Nassauborg

Ship's website: http://www.wagenborg.com/index.cfm?pid=37&itemid=158&contentitemid=236

Last reported at 2015-Sep-02 01:33 UTC. Time now 2015-Sep-02 02:31 UTC.
Position N 55°17' E 014°21'.

Length 143 m; beam 22 m.

Type: Ship. MMSI: 246430000.

Date/timePositionNaut miles runAvg speedWind from/ knotsBaromVisibWave heightAir tempDewpointWater temp
2015-Sep-02 01:33N 55°17' E 014°21'9 9.3
2015-Sep-02 00:33N 55°24' E 014°31'9 9.4
2015-Sep-01 23:33N 55°30' E 014°44'10 9.6
2015-Sep-01 22:33N 55°35' E 014°59'10 9.6
2015-Sep-01 21:33N 55°39' E 015°14'10 9.4
2015-Sep-01 20:31N 55°44' E 015°29'  
2015-Aug-27 18:33N 55°45' E 015°45'1110.2
2015-Aug-27 17:31N 55°40' E 015°29'1010.4
2015-Aug-27 16:33N 55°35' E 015°13'1010.4
2015-Aug-27 15:33N 55°30' E 014°57'1010.3
2015-Aug-27 14:33N 55°25' E 014°41'10 9.9
2015-Aug-27 13:33N 55°18' E 014°29'10 9.7
2015-Aug-27 12:33N 55°11' E 014°16'10 9.9
2015-Aug-27 11:33N 55°11' E 013°59'1010.2
2015-Aug-27 10:33N 55°12' E 013°41'1010.0
2015-Aug-27 09:33N 55°13' E 013°24'1010.0
2015-Aug-27 08:34N 55°14' E 013°06'1110.4
2015-Aug-27 07:33N 55°16' E 012°48'8 8.0
2015-Aug-27 06:33N 55°22' E 012°39'10 9.6
2015-Aug-27 05:33N 55°32' E 012°42'9 9.2
2015-Aug-27 04:33N 55°41' E 012°41'9 9.3
2015-Aug-27 03:33N 55°50' E 012°41'9 8.6
2015-Aug-27 02:34N 55°59' E 012°40'9 8.9
2015-Aug-27 01:34N 56°06' E 012°32'9 9.4
2015-Aug-27 00:33N 56°12' E 012°18'10 9.6
2015-Aug-26 23:33N 56°18' E 012°04'9 9.1
2015-Aug-26 22:32N 56°27' E 012°00'9 9.5
2015-Aug-26 21:33N 56°36' E 011°56'9 9.1
2015-Aug-26 20:32N 56°45' E 011°52'9 9.4
2015-Aug-26 19:33N 56°54' E 011°47'10 9.7
2015-Aug-26 18:33N 57°03' E 011°41'9 9.2
2015-Aug-26 17:33N 57°11' E 011°36'9 8.5
2015-Aug-26 16:33N 57°19' E 011°29'9 8.9
2015-Aug-26 15:33N 57°27' E 011°22'8 8.3
2015-Aug-26 14:33N 57°33' E 011°11'9 9.4
2015-Aug-26 13:33N 57°36' E 010°55'10 8.7
2015-Aug-26 12:26N 57°40' E 010°38'1 0.1
2015-Aug-26 07:26N 57°41' E 010°37'6 7.0
2015-Aug-26 06:33N 57°45' E 010°45'37611.4
2015-Aug-24 21:32N 55°23' E 000°14'1110.8
2015-Aug-24 20:33N 55°20' W 000°04'1110.7
2015-Aug-24 19:31N 55°15' W 000°22'1110.7
2015-Aug-24 18:32N 55°12' W 000°39'1410.8
2015-Aug-24 17:13N 55°06' W 001°02'710.8
2015-Aug-24 16:33N 55°04' W 001°14'  

Dump ship's entire track history